Impacts METAR Board
IDs:

KDCA - Washington/National, VA, US

Updated at: 0700 UTC 16 Oct 2018
Potential Impact None Slight Moderate High
Time 15/19Z 15/20Z 15/21Z 15/22Z 15/23Z 16/00Z 16/01Z 16/02Z 16/03Z 16/04Z 16/05Z 16/06Z 16/07Z
Temp68 68 70 70 70 72 73 74 72 70 67 65 63
Dewpt63 63 63 63 64 65 65 65 65 59 53 52 48
Altim30.03 30.01 29.99 29.98 29.96 29.98 29.96 29.98 29.97 30.02 30.05 30.09 30.11
VIS10 10 10 10 10 10 10 10 10 10 10 10 10
CIG120 110 100 100 250 250 250 -- 120 33 80 49 55
CoverOVCOVCOVCOVCBKNBKNBKNSCTOVCOVCOVCOVCOVC
FltCatVFRVFRVFRVFRVFRVFRVFRVFRVFRVFRVFRVFRVFR
WX---RA----------------------
WDir190180200210200220190200210330330350340
WSpd6 9 9 10 10 10 8 9 9 18 10 10 10
WGst-- -- -- -- -- -- -- -- -- 27 17 -- 17
Raw hourly METARs
KDCA 151852Z 19006KT 10SM FEW025 SCT075 BKN120 OVC150 20/17 A3003 RMK AO2 RAB16E30 SLP168 P0000 T02000172
KDCA 151952Z 18009KT 10SM -RA SCT050 SCT070 OVC110 20/17 A3001 RMK AO2 RAB20 SLP161 P0000 T02000172
KDCA 152052Z 20009KT 10SM FEW050 BKN100 OVC250 21/17 A2999 RMK AO2 RAE08 SLP153 P0001 60001 T02110172 58018
KDCA 152152Z 21010KT 10SM FEW055 BKN100 OVC120 21/17 A2998 RMK AO2 SLP151 T02110172
KDCA 152252Z 20010KT 10SM FEW060 SCT120 BKN250 21/18 A2996 RMK AO2 SLP145 T02110178
KDCA 152352Z 22010KT 10SM FEW065 SCT110 BKN250 22/18 A2998 RMK AO2 SLP151 60001 T02220183 10228 20194 55003
KDCA 160052Z 19008KT 10SM FEW070 SCT100 BKN250 23/18 A2996 RMK AO2 SLP146 T02280183
KDCA 160152Z 20009KT 10SM FEW075 FEW100 SCT250 23/18 A2998 RMK AO2 SLP152 T02330183
KDCA 160252Z 21009KT 10SM FEW080 SCT100 OVC120 22/18 A2997 RMK AO2 SLP147 T02220183 57003
KDCA 160402Z 33018G27KT 10SM FEW020 SCT028 OVC033 21/15 A3002 RMK AO2 PK WND 31027/0358 T02110150
KDCA 160452Z 33010G17KT 10SM OVC080 19/12 A3005 RMK AO2 PK WND 32027/0419 SLP175 T01940117 402330150
KDCA 160552Z 35010KT 10SM BKN049 OVC055 18/11 A3009 RMK AO2 SLP188 T01830111 10233 20183 53024
KDCA 160652Z 34010G17KT 10SM BKN055 OVC140 17/09 A3011 RMK AO2 SLP194 T01720089



Page loaded:  07:27 UTC  |   12:27 AM Pacific  |   01:27 AM Mountain  |   02:27 AM Central  |   03:27 AM Eastern

 

ADVISORIES

FORECASTS

FORECASTS

OBSERVATIONS

USER TOOLS

ABOUT US